sensor_id;sensor_type;location;lat;lon;timestamp;temperature;humidity
26691;DHT22;14307;51.718;8.938;2022-11-21T00:00:50;0.70;99.90
26691;DHT22;14307;51.718;8.938;2022-11-21T00:03:17;0.70;99.90
26691;DHT22;14307;51.718;8.938;2022-11-21T00:05:46;0.70;99.90
26691;DHT22;14307;51.718;8.938;2022-11-21T00:08:15;0.60;99.90
26691;DHT22;14307;51.718;8.938;2022-11-21T00:10:43;0.40;99.90
26691;DHT22;14307;51.718;8.938;2022-11-21T00:13:28;0.10;99.90
26691;DHT22;14307;51.718;8.938;2022-11-21T00:15:54;0.00;99.90
26691;DHT22;14307;51.718;8.938;2022-11-21T00:18:21;-0.10;99.90
26691;DHT22;14307;51.718;8.938;2022-11-21T00:20:48;-0.10;99.90
26691;DHT22;14307;51.718;8.938;2022-11-21T00:23:14;-0.10;99.90
26691;DHT22;14307;51.718;8.938;2022-11-21T00:25:41;-0.10;99.90
26691;DHT22;14307;51.718;8.938;2022-11-21T00:28:08;-0.10;99.90
26691;DHT22;14307;51.718;8.938;2022-11-21T00:30:34;-0.10;99.90
26691;DHT22;14307;51.718;8.938;2022-11-21T00:33:01;0.00;99.90
26691;DHT22;14307;51.718;8.938;2022-11-21T00:35:29;0.10;99.90
26691;DHT22;14307;51.718;8.938;2022-11-21T00:37:56;-0.10;99.90
26691;DHT22;14307;51.718;8.938;2022-11-21T00:40:23;-0.10;99.90
26691;DHT22;14307;51.718;8.938;2022-11-21T00:42:49;-0.10;99.90
26691;DHT22;14307;51.718;8.938;2022-11-21T00:45:16;-0.10;99.90
26691;DHT22;14307;51.718;8.938;2022-11-21T00:47:49;-0.10;99.90
26691;DHT22;14307;51.718;8.938;2022-11-21T00:50:16;0.00;99.90
26691;DHT22;14307;51.718;8.938;2022-11-21T00:52:43;0.00;99.90
26691;DHT22;14307;51.718;8.938;2022-11-21T00:55:10;-0.10;99.90
26691;DHT22;14307;51.718;8.938;2022-11-21T00:57:36;0.00;99.90
26691;DHT22;14307;51.718;8.938;2022-11-21T01:00:04;0.00;99.90
26691;DHT22;14307;51.718;8.938;2022-11-21T01:02:31;0.00;99.90
26691;DHT22;14307;51.718;8.938;2022-11-21T01:04:58;0.00;99.90
26691;DHT22;14307;51.718;8.938;2022-11-21T01:07:25;0.10;99.90
26691;DHT22;14307;51.718;8.938;2022-11-21T01:09:51;0.10;99.90
26691;DHT22;14307;51.718;8.938;2022-11-21T01:12:18;0.10;99.90
26691;DHT22;14307;51.718;8.938;2022-11-21T01:14:45;0.20;99.90
26691;DHT22;14307;51.718;8.938;2022-11-21T01:17:11;0.20;99.90
26691;DHT22;14307;51.718;8.938;2022-11-21T01:19:38;0.30;99.90
26691;DHT22;14307;51.718;8.938;2022-11-21T01:22:05;0.20;99.90
26691;DHT22;14307;51.718;8.938;2022-11-21T01:24:34;0.10;99.90
26691;DHT22;14307;51.718;8.938;2022-11-21T01:27:00;0.20;99.90
26691;DHT22;14307;51.718;8.938;2022-11-21T01:29:27;0.30;99.90
26691;DHT22;14307;51.718;8.938;2022-11-21T01:31:54;0.30;99.90
26691;DHT22;14307;51.718;8.938;2022-11-21T01:34:21;0.20;99.90
26691;DHT22;14307;51.718;8.938;2022-11-21T01:36:48;0.30;99.90
26691;DHT22;14307;51.718;8.938;2022-11-21T01:39:14;0.30;99.90
26691;DHT22;14307;51.718;8.938;2022-11-21T01:41:43;0.30;99.90
26691;DHT22;14307;51.718;8.938;2022-11-21T01:44:24;0.40;99.90
26691;DHT22;14307;51.718;8.938;2022-11-21T01:46:53;0.30;99.90
26691;DHT22;14307;51.718;8.938;2022-11-21T01:51:57;0.40;99.90
26691;DHT22;14307;51.718;8.938;2022-11-21T01:54:32;0.30;99.90
26691;DHT22;14307;51.718;8.938;2022-11-21T01:57:34;0.30;99.90
26691;DHT22;14307;51.718;8.938;2022-11-21T02:00:16;0.30;99.90
26691;DHT22;14307;51.718;8.938;2022-11-21T02:02:50;0.20;99.90
26691;DHT22;14307;51.718;8.938;2022-11-21T02:05:22;0.20;99.90
26691;DHT22;14307;51.718;8.938;2022-11-21T02:07:53;0.20;99.90
26691;DHT22;14307;51.718;8.938;2022-11-21T02:10:21;0.20;99.90
26691;DHT22;14307;51.718;8.938;2022-11-21T02:12:50;0.10;99.90
26691;DHT22;14307;51.718;8.938;2022-11-21T02:15:18;0.20;99.90
26691;DHT22;14307;51.718;8.938;2022-11-21T02:17:45;0.20;99.90
26691;DHT22;14307;51.718;8.938;2022-11-21T02:20:16;0.30;99.90
26691;DHT22;14307;51.718;8.938;2022-11-21T02:25:39;0.30;99.90
26691;DHT22;14307;51.718;8.938;2022-11-21T02:28:19;0.40;99.90
26691;DHT22;14307;51.718;8.938;2022-11-21T02:30:46;0.30;99.90
26691;DHT22;14307;51.718;8.938;2022-11-21T02:33:13;0.30;99.90
26691;DHT22;14307;51.718;8.938;2022-11-21T02:35:40;0.30;99.90
26691;DHT22;14307;51.718;8.938;2022-11-21T02:40:41;0.50;99.90
26691;DHT22;14307;51.718;8.938;2022-11-21T02:45:47;0.60;99.90
26691;DHT22;14307;51.718;8.938;2022-11-21T02:48:14;0.60;99.90
26691;DHT22;14307;51.718;8.938;2022-11-21T02:50:45;0.60;99.90
26691;DHT22;14307;51.718;8.938;2022-11-21T02:53:14;0.70;99.90
26691;DHT22;14307;51.718;8.938;2022-11-21T02:55:42;0.60;99.90
26691;DHT22;14307;51.718;8.938;2022-11-21T02:58:09;0.60;99.90
26691;DHT22;14307;51.718;8.938;2022-11-21T03:00:39;0.40;99.90
26691;DHT22;14307;51.718;8.938;2022-11-21T03:03:06;0.30;99.90
26691;DHT22;14307;51.718;8.938;2022-11-21T03:05:33;0.20;99.90
26691;DHT22;14307;51.718;8.938;2022-11-21T03:08:00;0.10;99.90
26691;DHT22;14307;51.718;8.938;2022-11-21T03:10:27;0.00;99.90
26691;DHT22;14307;51.718;8.938;2022-11-21T03:12:54;0.00;99.90
26691;DHT22;14307;51.718;8.938;2022-11-21T03:15:31;0.00;99.90
26691;DHT22;14307;51.718;8.938;2022-11-21T03:18:00;-0.10;99.90
26691;DHT22;14307;51.718;8.938;2022-11-21T03:20:32;-0.20;99.90
26691;DHT22;14307;51.718;8.938;2022-11-21T03:23:00;-0.10;99.90
26691;DHT22;14307;51.718;8.938;2022-11-21T03:25:26;-0.10;99.90
26691;DHT22;14307;51.718;8.938;2022-11-21T03:27:53;0.00;99.90
26691;DHT22;14307;51.718;8.938;2022-11-21T03:30:21;-0.10;99.90
26691;DHT22;14307;51.718;8.938;2022-11-21T03:32:49;-0.10;99.90
26691;DHT22;14307;51.718;8.938;2022-11-21T03:35:16;0.00;99.90
26691;DHT22;14307;51.718;8.938;2022-11-21T03:37:43;0.10;99.90
26691;DHT22;14307;51.718;8.938;2022-11-21T03:40:10;0.10;99.90
26691;DHT22;14307;51.718;8.938;2022-11-21T03:42:37;0.10;99.90
26691;DHT22;14307;51.718;8.938;2022-11-21T03:45:04;0.20;99.90
26691;DHT22;14307;51.718;8.938;2022-11-21T03:47:31;0.10;99.90
26691;DHT22;14307;51.718;8.938;2022-11-21T03:49:57;0.30;99.90
26691;DHT22;14307;51.718;8.938;2022-11-21T03:52:24;0.20;99.90
26691;DHT22;14307;51.718;8.938;2022-11-21T03:54:51;0.30;99.90
26691;DHT22;14307;51.718;8.938;2022-11-21T03:57:18;0.30;99.90
26691;DHT22;14307;51.718;8.938;2022-11-21T03:59:44;0.40;99.90
26691;DHT22;14307;51.718;8.938;2022-11-21T04:02:11;0.40;99.90
26691;DHT22;14307;51.718;8.938;2022-11-21T04:04:38;0.40;99.90
26691;DHT22;14307;51.718;8.938;2022-11-21T04:07:07;0.40;99.90
26691;DHT22;14307;51.718;8.938;2022-11-21T04:09:34;0.50;99.90
26691;DHT22;14307;51.718;8.938;2022-11-21T04:12:00;0.50;99.90
26691;DHT22;14307;51.718;8.938;2022-11-21T04:14:33;0.50;99.90
26691;DHT22;14307;51.718;8.938;2022-11-21T04:17:00;0.50;99.90
26691;DHT22;14307;51.718;8.938;2022-11-21T04:19:27;0.50;99.90
26691;DHT22;14307;51.718;8.938;2022-11-21T04:21:54;0.60;99.90
26691;DHT22;14307;51.718;8.938;2022-11-21T04:24:20;0.60;99.90
26691;DHT22;14307;51.718;8.938;2022-11-21T04:26:47;0.50;99.90
26691;DHT22;14307;51.718;8.938;2022-11-21T04:29:14;0.50;99.90
26691;DHT22;14307;51.718;8.938;2022-11-21T04:31:40;0.40;99.90
26691;DHT22;14307;51.718;8.938;2022-11-21T04:34:07;0.40;99.90
26691;DHT22;14307;51.718;8.938;2022-11-21T04:36:34;0.40;99.90
26691;DHT22;14307;51.718;8.938;2022-11-21T04:39:00;0.40;99.90
26691;DHT22;14307;51.718;8.938;2022-11-21T04:41:27;0.40;99.90
26691;DHT22;14307;51.718;8.938;2022-11-21T04:43:54;0.40;99.90
26691;DHT22;14307;51.718;8.938;2022-11-21T04:46:20;0.50;99.90
26691;DHT22;14307;51.718;8.938;2022-11-21T04:48:47;0.60;99.90
26691;DHT22;14307;51.718;8.938;2022-11-21T04:51:14;0.60;99.90
26691;DHT22;14307;51.718;8.938;2022-11-21T04:53:40;0.50;99.90
26691;DHT22;14307;51.718;8.938;2022-11-21T04:56:09;0.50;99.90
26691;DHT22;14307;51.718;8.938;2022-11-21T04:58:35;0.40;99.90
26691;DHT22;14307;51.718;8.938;2022-11-21T05:01:06;0.40;99.90
26691;DHT22;14307;51.718;8.938;2022-11-21T05:03:34;0.30;99.90
26691;DHT22;14307;51.718;8.938;2022-11-21T05:06:02;0.30;99.90
26691;DHT22;14307;51.718;8.938;2022-11-21T05:08:28;0.40;99.90
26691;DHT22;14307;51.718;8.938;2022-11-21T05:10:55;0.40;99.90
26691;DHT22;14307;51.718;8.938;2022-11-21T05:13:41;0.30;99.90
26691;DHT22;14307;51.718;8.938;2022-11-21T05:16:08;0.30;99.90
26691;DHT22;14307;51.718;8.938;2022-11-21T05:18:35;0.30;99.90
26691;DHT22;14307;51.718;8.938;2022-11-21T05:21:01;0.30;99.90
26691;DHT22;14307;51.718;8.938;2022-11-21T05:23:28;0.40;99.90
26691;DHT22;14307;51.718;8.938;2022-11-21T05:25:55;0.50;99.90
26691;DHT22;14307;51.718;8.938;2022-11-21T05:28:22;0.50;99.90
26691;DHT22;14307;51.718;8.938;2022-11-21T05:30:48;0.50;99.90
26691;DHT22;14307;51.718;8.938;2022-11-21T05:33:15;0.60;99.90
26691;DHT22;14307;51.718;8.938;2022-11-21T05:35:42;0.60;99.90
26691;DHT22;14307;51.718;8.938;2022-11-21T05:38:09;0.50;99.90
26691;DHT22;14307;51.718;8.938;2022-11-21T05:40:36;0.50;99.90
26691;DHT22;14307;51.718;8.938;2022-11-21T05:43:03;0.50;99.90
26691;DHT22;14307;51.718;8.938;2022-11-21T05:45:49;0.50;99.90
26691;DHT22;14307;51.718;8.938;2022-11-21T05:48:16;0.50;99.90
26691;DHT22;14307;51.718;8.938;2022-11-21T05:50:46;0.40;99.90
26691;DHT22;14307;51.718;8.938;2022-11-21T05:53:14;0.50;99.90
26691;DHT22;14307;51.718;8.938;2022-11-21T05:55:41;0.50;99.90
26691;DHT22;14307;51.718;8.938;2022-11-21T05:58:07;0.50;99.90
26691;DHT22;14307;51.718;8.938;2022-11-21T06:00:36;0.40;99.90
26691;DHT22;14307;51.718;8.938;2022-11-21T06:03:05;0.30;99.90
26691;DHT22;14307;51.718;8.938;2022-11-21T06:05:50;0.20;99.90
26691;DHT22;14307;51.718;8.938;2022-11-21T06:08:17;0.20;99.90
26691;DHT22;14307;51.718;8.938;2022-11-21T06:10:44;0.10;99.90
26691;DHT22;14307;51.718;8.938;2022-11-21T06:13:11;0.10;99.90
26691;DHT22;14307;51.718;8.938;2022-11-21T06:15:58;0.00;99.90
26691;DHT22;14307;51.718;8.938;2022-11-21T06:18:26;0.00;99.90
26691;DHT22;14307;51.718;8.938;2022-11-21T06:20:53;0.00;99.90
26691;DHT22;14307;51.718;8.938;2022-11-21T06:23:20;0.00;99.90
26691;DHT22;14307;51.718;8.938;2022-11-21T06:25:47;0.10;99.90
26691;DHT22;14307;51.718;8.938;2022-11-21T06:28:13;0.10;99.90
26691;DHT22;14307;51.718;8.938;2022-11-21T06:30:40;0.10;99.90
26691;DHT22;14307;51.718;8.938;2022-11-21T06:33:07;0.20;99.90
26691;DHT22;14307;51.718;8.938;2022-11-21T06:35:36;0.20;99.90
26691;DHT22;14307;51.718;8.938;2022-11-21T06:38:04;0.20;99.90
26691;DHT22;14307;51.718;8.938;2022-11-21T06:40:30;0.20;99.90
26691;DHT22;14307;51.718;8.938;2022-11-21T06:42:57;0.20;99.90
26691;DHT22;14307;51.718;8.938;2022-11-21T06:45:24;0.20;99.90
26691;DHT22;14307;51.718;8.938;2022-11-21T06:47:50;0.10;99.90
26691;DHT22;14307;51.718;8.938;2022-11-21T06:50:17;0.20;99.90
26691;DHT22;14307;51.718;8.938;2022-11-21T06:52:44;0.20;99.90
26691;DHT22;14307;51.718;8.938;2022-11-21T06:55:11;0.10;99.90
26691;DHT22;14307;51.718;8.938;2022-11-21T06:57:37;0.10;99.90
26691;DHT22;14307;51.718;8.938;2022-11-21T07:00:05;0.20;99.90
26691;DHT22;14307;51.718;8.938;2022-11-21T07:02:32;0.30;99.90
26691;DHT22;14307;51.718;8.938;2022-11-21T07:04:58;0.30;99.90
26691;DHT22;14307;51.718;8.938;2022-11-21T07:07:25;0.30;99.90
26691;DHT22;14307;51.718;8.938;2022-11-21T07:09:52;0.40;99.90
26691;DHT22;14307;51.718;8.938;2022-11-21T07:12:18;0.40;99.90
26691;DHT22;14307;51.718;8.938;2022-11-21T07:15:18;0.50;99.90
26691;DHT22;14307;51.718;8.938;2022-11-21T07:17:44;0.40;99.90
26691;DHT22;14307;51.718;8.938;2022-11-21T07:20:11;0.40;99.90
26691;DHT22;14307;51.718;8.938;2022-11-21T07:22:39;0.40;99.90
26691;DHT22;14307;51.718;8.938;2022-11-21T07:25:05;0.50;99.90
26691;DHT22;14307;51.718;8.938;2022-11-21T07:27:32;0.60;99.90
26691;DHT22;14307;51.718;8.938;2022-11-21T07:29:59;0.50;99.90
26691;DHT22;14307;51.718;8.938;2022-11-21T07:32:26;0.60;99.90
26691;DHT22;14307;51.718;8.938;2022-11-21T07:34:53;0.50;99.90
26691;DHT22;14307;51.718;8.938;2022-11-21T07:37:20;0.60;99.90
26691;DHT22;14307;51.718;8.938;2022-11-21T07:39:46;0.70;99.90
26691;DHT22;14307;51.718;8.938;2022-11-21T07:42:13;0.70;99.90
26691;DHT22;14307;51.718;8.938;2022-11-21T07:44:40;0.60;99.90
26691;DHT22;14307;51.718;8.938;2022-11-21T07:47:07;0.50;99.90
26691;DHT22;14307;51.718;8.938;2022-11-21T07:49:34;0.50;99.90
26691;DHT22;14307;51.718;8.938;2022-11-21T07:52:03;0.60;99.90
26691;DHT22;14307;51.718;8.938;2022-11-21T07:54:30;0.50;99.90
26691;DHT22;14307;51.718;8.938;2022-11-21T07:56:57;0.60;99.90
26691;DHT22;14307;51.718;8.938;2022-11-21T07:59:23;0.70;99.90
26691;DHT22;14307;51.718;8.938;2022-11-21T08:01:50;0.80;99.90
26691;DHT22;14307;51.718;8.938;2022-11-21T08:04:18;0.90;99.90
26691;DHT22;14307;51.718;8.938;2022-11-21T08:06:45;0.90;99.90
26691;DHT22;14307;51.718;8.938;2022-11-21T08:09:11;0.90;99.90
26691;DHT22;14307;51.718;8.938;2022-11-21T08:11:38;1.00;99.90
26691;DHT22;14307;51.718;8.938;2022-11-21T08:14:05;1.00;99.90
26691;DHT22;14307;51.718;8.938;2022-11-21T08:16:31;1.00;99.90
26691;DHT22;14307;51.718;8.938;2022-11-21T08:18:58;1.10;99.90
26691;DHT22;14307;51.718;8.938;2022-11-21T08:21:25;1.10;99.90
26691;DHT22;14307;51.718;8.938;2022-11-21T08:23:53;1.20;99.90
26691;DHT22;14307;51.718;8.938;2022-11-21T08:26:20;1.20;99.90
26691;DHT22;14307;51.718;8.938;2022-11-21T08:28:46;1.20;99.90
26691;DHT22;14307;51.718;8.938;2022-11-21T08:31:13;1.30;99.90
26691;DHT22;14307;51.718;8.938;2022-11-21T08:33:40;1.20;99.90
26691;DHT22;14307;51.718;8.938;2022-11-21T08:36:06;1.20;99.90
26691;DHT22;14307;51.718;8.938;2022-11-21T08:38:33;1.30;99.90
26691;DHT22;14307;51.718;8.938;2022-11-21T08:41:00;1.20;99.90
26691;DHT22;14307;51.718;8.938;2022-11-21T08:43:45;1.10;99.90
26691;DHT22;14307;51.718;8.938;2022-11-21T08:46:12;1.20;99.90
26691;DHT22;14307;51.718;8.938;2022-11-21T08:48:38;1.00;99.90
26691;DHT22;14307;51.718;8.938;2022-11-21T08:51:05;0.90;99.90
26691;DHT22;14307;51.718;8.938;2022-11-21T08:53:32;0.80;99.90
26691;DHT22;14307;51.718;8.938;2022-11-21T08:55:58;0.70;99.90
26691;DHT22;14307;51.718;8.938;2022-11-21T08:58:30;0.60;99.90
26691;DHT22;14307;51.718;8.938;2022-11-21T09:00:58;0.60;99.90
26691;DHT22;14307;51.718;8.938;2022-11-21T09:03:25;0.70;99.90
26691;DHT22;14307;51.718;8.938;2022-11-21T09:05:57;0.70;99.90
26691;DHT22;14307;51.718;8.938;2022-11-21T09:08:24;0.60;99.90
26691;DHT22;14307;51.718;8.938;2022-11-21T09:10:51;0.50;99.90
26691;DHT22;14307;51.718;8.938;2022-11-21T09:13:18;0.60;99.90
26691;DHT22;14307;51.718;8.938;2022-11-21T09:15:45;0.80;99.90
26691;DHT22;14307;51.718;8.938;2022-11-21T09:18:30;0.90;99.90
26691;DHT22;14307;51.718;8.938;2022-11-21T09:20:57;1.00;99.90
26691;DHT22;14307;51.718;8.938;2022-11-21T09:23:24;1.10;99.90
26691;DHT22;14307;51.718;8.938;2022-11-21T09:25:51;1.40;99.90
26691;DHT22;14307;51.718;8.938;2022-11-21T09:28:18;1.60;99.90
26691;DHT22;14307;51.718;8.938;2022-11-21T09:30:45;1.70;99.90
26691;DHT22;14307;51.718;8.938;2022-11-21T09:33:13;1.70;99.90
26691;DHT22;14307;51.718;8.938;2022-11-21T09:35:40;1.90;99.90
26691;DHT22;14307;51.718;8.938;2022-11-21T09:38:07;1.90;99.90
26691;DHT22;14307;51.718;8.938;2022-11-21T09:40:34;2.00;99.90
26691;DHT22;14307;51.718;8.938;2022-11-21T09:45:44;2.30;99.90
26691;DHT22;14307;51.718;8.938;2022-11-21T09:48:19;2.30;99.90
26691;DHT22;14307;51.718;8.938;2022-11-21T09:50:53;2.50;99.90
26691;DHT22;14307;51.718;8.938;2022-11-21T10:01:04;2.60;99.90
26691;DHT22;14307;51.718;8.938;2022-11-21T10:12:20;3.00;99.90
26691;DHT22;14307;51.718;8.938;2022-11-21T10:26:29;2.90;99.90
26691;DHT22;14307;51.718;8.938;2022-11-21T10:31:35;3.10;99.90
26691;DHT22;14307;51.718;8.938;2022-11-21T10:34:10;3.40;99.90
26691;DHT22;14307;51.718;8.938;2022-11-21T10:36:47;3.20;99.90
26691;DHT22;14307;51.718;8.938;2022-11-21T10:42:04;3.50;99.90
26691;DHT22;14307;51.718;8.938;2022-11-21T10:44:37;3.60;99.90
26691;DHT22;14307;51.718;8.938;2022-11-21T10:47:30;3.30;99.90
26691;DHT22;14307;51.718;8.938;2022-11-21T10:50:27;2.80;99.90
26691;DHT22;14307;51.718;8.938;2022-11-21T10:58:41;2.30;99.90
26691;DHT22;14307;51.718;8.938;2022-11-21T11:01:27;2.40;99.90
26691;DHT22;14307;51.718;8.938;2022-11-21T11:04:16;2.70;99.90
26691;DHT22;14307;51.718;8.938;2022-11-21T11:09:49;3.00;99.90
26691;DHT22;14307;51.718;8.938;2022-11-21T11:12:29;2.60;99.90
26691;DHT22;14307;51.718;8.938;2022-11-21T11:15:21;2.00;99.90
26691;DHT22;14307;51.718;8.938;2022-11-21T11:17:56;1.70;99.90
26691;DHT22;14307;51.718;8.938;2022-11-21T11:20:41;1.50;99.90
26691;DHT22;14307;51.718;8.938;2022-11-21T11:25:58;1.50;99.90
26691;DHT22;14307;51.718;8.938;2022-11-21T11:28:25;1.60;99.90
26691;DHT22;14307;51.718;8.938;2022-11-21T11:30:54;1.70;99.90
26691;DHT22;14307;51.718;8.938;2022-11-21T11:36:14;1.90;99.90
26691;DHT22;14307;51.718;8.938;2022-11-21T11:38:47;2.10;99.90
26691;DHT22;14307;51.718;8.938;2022-11-21T11:44:09;2.20;99.90
26691;DHT22;14307;51.718;8.938;2022-11-21T11:46:59;2.00;99.90
26691;DHT22;14307;51.718;8.938;2022-11-21T11:49:51;2.10;99.90
26691;DHT22;14307;51.718;8.938;2022-11-21T11:53:05;2.00;99.90
26691;DHT22;14307;51.718;8.938;2022-11-21T11:55:45;2.10;99.90
26691;DHT22;14307;51.718;8.938;2022-11-21T12:03:52;2.10;99.90
26691;DHT22;14307;51.718;8.938;2022-11-21T12:06:25;2.20;99.90
26691;DHT22;14307;51.718;8.938;2022-11-21T12:12:09;2.60;99.90
26691;DHT22;14307;51.718;8.938;2022-11-21T12:23:16;2.30;99.90
26691;DHT22;14307;51.718;8.938;2022-11-21T12:31:54;1.90;99.90
26691;DHT22;14307;51.718;8.938;2022-11-21T12:37:38;1.90;99.90
26691;DHT22;14307;51.718;8.938;2022-11-21T12:46:27;2.00;99.90
26691;DHT22;14307;51.718;8.938;2022-11-21T12:49:26;2.10;99.90
26691;DHT22;14307;51.718;8.938;2022-11-21T12:55:35;2.20;99.90
26691;DHT22;14307;51.718;8.938;2022-11-21T13:03:49;2.20;99.90
26691;DHT22;14307;51.718;8.938;2022-11-21T13:06:21;2.30;99.90
26691;DHT22;14307;51.718;8.938;2022-11-21T13:08:51;2.30;99.90
26691;DHT22;14307;51.718;8.938;2022-11-21T13:25:36;1.80;99.90
26691;DHT22;14307;51.718;8.938;2022-11-21T13:30:52;2.00;99.90
26691;DHT22;14307;51.718;8.938;2022-11-21T13:36:11;1.90;99.90
26691;DHT22;14307;51.718;8.938;2022-11-21T13:44:39;2.00;99.90
26691;DHT22;14307;51.718;8.938;2022-11-21T13:52:43;2.00;99.90
26691;DHT22;14307;51.718;8.938;2022-11-21T13:55:54;2.00;99.90
26691;DHT22;14307;51.718;8.938;2022-11-21T14:06:36;2.20;99.90
26691;DHT22;14307;51.718;8.938;2022-11-21T14:09:16;2.20;99.90
26691;DHT22;14307;51.718;8.938;2022-11-21T14:20:47;2.00;99.90
26691;DHT22;14307;51.718;8.938;2022-11-21T14:23:19;1.90;99.90
26691;DHT22;14307;51.718;8.938;2022-11-21T14:25:55;1.90;99.90
26691;DHT22;14307;51.718;8.938;2022-11-21T14:31:05;1.90;99.90
26691;DHT22;14307;51.718;8.938;2022-11-21T14:33:37;2.00;99.90
26691;DHT22;14307;51.718;8.938;2022-11-21T14:36:05;1.90;99.90
26691;DHT22;14307;51.718;8.938;2022-11-21T14:38:41;1.90;99.90
26691;DHT22;14307;51.718;8.938;2022-11-21T14:46:25;1.90;99.90
26691;DHT22;14307;51.718;8.938;2022-11-21T14:48:52;1.90;99.90
26691;DHT22;14307;51.718;8.938;2022-11-21T14:51:23;1.90;99.90
26691;DHT22;14307;51.718;8.938;2022-11-21T14:53:51;1.90;99.90
26691;DHT22;14307;51.718;8.938;2022-11-21T14:56:27;2.10;99.90
26691;DHT22;14307;51.718;8.938;2022-11-21T14:58:57;2.00;99.90
26691;DHT22;14307;51.718;8.938;2022-11-21T15:01:27;2.00;99.90
26691;DHT22;14307;51.718;8.938;2022-11-21T15:04:05;2.10;99.90
26691;DHT22;14307;51.718;8.938;2022-11-21T15:06:41;2.00;99.90
26691;DHT22;14307;51.718;8.938;2022-11-21T15:09:12;1.90;99.90
26691;DHT22;14307;51.718;8.938;2022-11-21T15:12:03;1.80;99.90
26691;DHT22;14307;51.718;8.938;2022-11-21T15:17:07;1.80;99.90
26691;DHT22;14307;51.718;8.938;2022-11-21T15:19:37;1.70;99.90
26691;DHT22;14307;51.718;8.938;2022-11-21T15:22:03;1.60;99.90
26691;DHT22;14307;51.718;8.938;2022-11-21T15:24:42;1.50;99.90
26691;DHT22;14307;51.718;8.938;2022-11-21T15:27:30;1.60;99.90
26691;DHT22;14307;51.718;8.938;2022-11-21T15:30:23;1.50;99.90
26691;DHT22;14307;51.718;8.938;2022-11-21T15:40:39;1.30;99.90
26691;DHT22;14307;51.718;8.938;2022-11-21T15:43:44;1.30;99.90
26691;DHT22;14307;51.718;8.938;2022-11-21T15:48:45;1.30;99.90
26691;DHT22;14307;51.718;8.938;2022-11-21T15:51:13;1.30;99.90
26691;DHT22;14307;51.718;8.938;2022-11-21T15:53:40;1.40;99.90
26691;DHT22;14307;51.718;8.938;2022-11-21T15:56:09;1.30;99.90
26691;DHT22;14307;51.718;8.938;2022-11-21T15:58:37;1.30;99.90
26691;DHT22;14307;51.718;8.938;2022-11-21T16:01:03;1.30;99.90
26691;DHT22;14307;51.718;8.938;2022-11-21T16:03:30;1.30;99.90
26691;DHT22;14307;51.718;8.938;2022-11-21T16:05:57;1.30;99.90
26691;DHT22;14307;51.718;8.938;2022-11-21T16:08:24;1.30;99.90
26691;DHT22;14307;51.718;8.938;2022-11-21T16:10:51;1.30;99.90
26691;DHT22;14307;51.718;8.938;2022-11-21T16:13:17;1.30;99.90
26691;DHT22;14307;51.718;8.938;2022-11-21T16:15:44;1.30;99.90
26691;DHT22;14307;51.718;8.938;2022-11-21T16:18:10;1.30;99.90
26691;DHT22;14307;51.718;8.938;2022-11-21T16:20:37;1.30;99.90
26691;DHT22;14307;51.718;8.938;2022-11-21T16:23:04;1.40;99.90
26691;DHT22;14307;51.718;8.938;2022-11-21T16:25:31;1.50;99.90
26691;DHT22;14307;51.718;8.938;2022-11-21T16:27:57;1.50;99.90
26691;DHT22;14307;51.718;8.938;2022-11-21T16:30:29;1.50;99.90
26691;DHT22;14307;51.718;8.938;2022-11-21T16:33:00;1.50;99.90
26691;DHT22;14307;51.718;8.938;2022-11-21T16:35:27;1.60;99.90
26691;DHT22;14307;51.718;8.938;2022-11-21T16:37:53;1.50;99.90
26691;DHT22;14307;51.718;8.938;2022-11-21T16:40:20;1.60;99.90
26691;DHT22;14307;51.718;8.938;2022-11-21T16:42:47;1.50;99.90
26691;DHT22;14307;51.718;8.938;2022-11-21T16:45:14;1.50;99.90
26691;DHT22;14307;51.718;8.938;2022-11-21T16:47:40;1.50;99.90
26691;DHT22;14307;51.718;8.938;2022-11-21T16:50:14;1.50;99.90
26691;DHT22;14307;51.718;8.938;2022-11-21T16:52:41;1.40;99.90
26691;DHT22;14307;51.718;8.938;2022-11-21T16:55:07;1.40;99.90
26691;DHT22;14307;51.718;8.938;2022-11-21T16:57:34;1.50;99.90
26691;DHT22;14307;51.718;8.938;2022-11-21T17:00:02;1.40;99.90
26691;DHT22;14307;51.718;8.938;2022-11-21T17:02:29;1.40;99.90
26691;DHT22;14307;51.718;8.938;2022-11-21T17:04:56;1.40;99.90
26691;DHT22;14307;51.718;8.938;2022-11-21T17:07:22;1.50;99.90
26691;DHT22;14307;51.718;8.938;2022-11-21T17:09:50;1.50;99.90
26691;DHT22;14307;51.718;8.938;2022-11-21T17:12:17;1.50;99.90
26691;DHT22;14307;51.718;8.938;2022-11-21T17:14:46;1.50;99.90
26691;DHT22;14307;51.718;8.938;2022-11-21T17:17:12;1.50;99.90
26691;DHT22;14307;51.718;8.938;2022-11-21T17:19:39;1.60;99.90
26691;DHT22;14307;51.718;8.938;2022-11-21T17:22:06;1.70;99.90
26691;DHT22;14307;51.718;8.938;2022-11-21T17:24:33;1.60;99.90
26691;DHT22;14307;51.718;8.938;2022-11-21T17:26:59;1.60;99.90
26691;DHT22;14307;51.718;8.938;2022-11-21T17:29:28;1.60;99.90
26691;DHT22;14307;51.718;8.938;2022-11-21T17:31:55;1.60;99.90
26691;DHT22;14307;51.718;8.938;2022-11-21T17:34:22;1.50;99.90
26691;DHT22;14307;51.718;8.938;2022-11-21T17:36:56;1.50;99.90
26691;DHT22;14307;51.718;8.938;2022-11-21T17:39:23;1.50;99.90
26691;DHT22;14307;51.718;8.938;2022-11-21T17:41:55;1.50;99.90
26691;DHT22;14307;51.718;8.938;2022-11-21T17:44:24;1.50;99.90
26691;DHT22;14307;51.718;8.938;2022-11-21T17:46:52;1.50;99.90
26691;DHT22;14307;51.718;8.938;2022-11-21T17:49:18;1.50;99.90
26691;DHT22;14307;51.718;8.938;2022-11-21T17:51:46;1.50;99.90
26691;DHT22;14307;51.718;8.938;2022-11-21T17:54:12;1.50;99.90
26691;DHT22;14307;51.718;8.938;2022-11-21T17:56:39;1.50;99.90
26691;DHT22;14307;51.718;8.938;2022-11-21T17:59:12;1.50;99.90
26691;DHT22;14307;51.718;8.938;2022-11-21T18:01:39;1.60;99.90
26691;DHT22;14307;51.718;8.938;2022-11-21T18:04:06;1.50;99.90
26691;DHT22;14307;51.718;8.938;2022-11-21T18:06:40;1.50;99.90
26691;DHT22;14307;51.718;8.938;2022-11-21T18:09:09;1.50;99.90
26691;DHT22;14307;51.718;8.938;2022-11-21T18:11:37;1.60;99.90
26691;DHT22;14307;51.718;8.938;2022-11-21T18:14:07;1.50;99.90
26691;DHT22;14307;51.718;8.938;2022-11-21T18:16:34;1.50;99.90
26691;DHT22;14307;51.718;8.938;2022-11-21T18:19:01;1.50;99.90
26691;DHT22;14307;51.718;8.938;2022-11-21T18:21:29;1.50;99.90
26691;DHT22;14307;51.718;8.938;2022-11-21T18:23:57;1.50;99.90
26691;DHT22;14307;51.718;8.938;2022-11-21T18:26:27;1.40;99.90
26691;DHT22;14307;51.718;8.938;2022-11-21T18:28:55;1.50;99.90
26691;DHT22;14307;51.718;8.938;2022-11-21T18:31:42;1.50;99.90
26691;DHT22;14307;51.718;8.938;2022-11-21T18:34:09;1.50;99.90
26691;DHT22;14307;51.718;8.938;2022-11-21T18:36:38;1.50;99.90
26691;DHT22;14307;51.718;8.938;2022-11-21T18:39:05;1.60;99.90
26691;DHT22;14307;51.718;8.938;2022-11-21T18:41:40;1.50;99.90
26691;DHT22;14307;51.718;8.938;2022-11-21T18:44:07;1.50;99.90
26691;DHT22;14307;51.718;8.938;2022-11-21T18:46:44;1.60;99.90
26691;DHT22;14307;51.718;8.938;2022-11-21T18:49:12;1.60;99.90
26691;DHT22;14307;51.718;8.938;2022-11-21T18:51:39;1.60;99.90
26691;DHT22;14307;51.718;8.938;2022-11-21T18:54:06;1.60;99.90
26691;DHT22;14307;51.718;8.938;2022-11-21T18:56:36;1.60;99.90